createdAt,value
2023-02-03T00:01:27.013Z,26.47
2023-02-03T00:03:53.564Z,23.20
2023-02-03T00:06:20.159Z,23.60
2023-02-03T00:08:47.312Z,25.43
2023-02-03T00:11:14.081Z,23.17
2023-02-03T00:13:40.861Z,22.80
2023-02-03T00:16:07.764Z,23.07
2023-02-03T00:18:34.475Z,24.00
2023-02-03T00:21:00.974Z,24.50
2023-02-03T00:23:31.947Z,22.90
2023-02-03T00:26:07.157Z,23.57
2023-02-03T00:28:33.687Z,23.57
2023-02-03T00:31:00.156Z,22.30
2023-02-03T00:33:26.616Z,22.50
2023-02-03T00:35:53.103Z,21.67
2023-02-03T00:38:19.565Z,22.43
2023-02-03T00:40:53.563Z,22.30
2023-02-03T00:43:21.310Z,22.93
2023-02-03T00:45:48.099Z,21.60
2023-02-03T00:48:14.769Z,21.27
2023-02-03T00:50:41.286Z,21.50
2023-02-03T00:53:07.775Z,21.40
2023-02-03T00:55:34.492Z,18.80
2023-02-03T00:58:01.009Z,19.87
2023-02-03T01:00:27.926Z,20.07
2023-02-03T01:02:54.769Z,20.37
2023-02-03T01:05:21.309Z,20.20
2023-02-03T01:07:48.060Z,21.83
2023-02-03T01:10:15.667Z,20.63
2023-02-03T01:12:42.177Z,19.10
2023-02-03T01:15:08.914Z,20.10
2023-02-03T01:17:35.467Z,20.63
2023-02-03T01:20:01.989Z,20.63
2023-02-03T01:22:31.618Z,19.27
2023-02-03T01:24:58.359Z,19.67
2023-02-03T01:27:25.003Z,21.23
2023-02-03T01:29:51.689Z,20.53
2023-02-03T01:32:18.138Z,20.23
2023-02-03T01:34:45.005Z,21.03
2023-02-03T01:37:11.839Z,20.00
2023-02-03T01:39:38.294Z,20.27
2023-02-03T01:42:06.019Z,19.30
2023-02-03T01:44:42.705Z,21.13
2023-02-03T01:47:16.293Z,19.90
2023-02-03T01:49:48.027Z,21.10
2023-02-03T01:52:15.200Z,21.70
2023-02-03T01:54:44.577Z,20.90
2023-02-03T01:57:17.136Z,22.43
2023-02-03T01:59:43.812Z,21.00
2023-02-03T02:02:11.648Z,22.37
2023-02-03T02:04:58.478Z,20.90
2023-02-03T02:07:25.506Z,23.07
2023-02-03T02:09:52.248Z,21.30
2023-02-03T02:12:18.877Z,21.00
2023-02-03T02:14:45.966Z,21.57
2023-02-03T02:17:45.054Z,22.00
2023-02-03T02:20:14.558Z,21.03
2023-02-03T02:23:06.109Z,20.87
2023-02-03T02:25:51.504Z,19.67
2023-02-03T02:28:42.001Z,22.57
2023-02-03T02:31:38.410Z,19.60
2023-02-03T02:34:28.954Z,20.13
2023-02-03T02:37:07.356Z,18.80
2023-02-03T02:39:47.193Z,20.00
2023-02-03T02:42:43.063Z,20.00
2023-02-03T02:45:14.604Z,19.60
2023-02-03T02:47:41.174Z,21.00
2023-02-03T02:50:22.789Z,18.83
2023-02-03T02:52:50.097Z,21.50
2023-02-03T02:55:27.740Z,19.07
2023-02-03T02:57:56.439Z,19.03
2023-02-03T03:00:23.509Z,19.87
2023-02-03T03:02:50.319Z,19.53
2023-02-03T03:05:18.144Z,19.47
2023-02-03T03:07:55.651Z,19.07
2023-02-03T03:10:25.017Z,18.93
2023-02-03T03:12:55.869Z,17.67
2023-02-03T03:15:27.480Z,18.97
2023-02-03T03:18:11.409Z,17.77
2023-02-03T03:20:40.390Z,17.33
2023-02-03T03:23:08.417Z,16.63
2023-02-03T03:25:41.093Z,17.70
2023-02-03T03:28:15.224Z,16.03
2023-02-03T03:30:41.938Z,16.67
2023-02-03T03:33:08.964Z,15.87
2023-02-03T03:36:14.915Z,17.40
2023-02-03T03:38:46.210Z,16.50
2023-02-03T03:41:37.391Z,15.37
2023-02-03T03:44:05.311Z,16.27
2023-02-03T03:46:36.117Z,16.63
2023-02-03T03:49:04.384Z,15.17
2023-02-03T03:51:48.193Z,14.60
2023-02-03T03:54:17.466Z,13.80
2023-02-03T03:56:57.061Z,13.40
2023-02-03T03:59:25.289Z,13.40
2023-02-03T04:01:52.704Z,12.50
2023-02-03T04:04:19.752Z,12.43
2023-02-03T04:06:46.236Z,13.50
2023-02-03T04:09:12.798Z,12.93
2023-02-03T04:11:58.028Z,12.70
2023-02-03T04:14:24.825Z,12.60
2023-02-03T04:16:51.451Z,12.03
2023-02-03T04:19:18.106Z,11.83
2023-02-03T04:21:44.744Z,11.10
2023-02-03T04:24:12.105Z,11.40
2023-02-03T04:26:38.998Z,10.27
2023-02-03T04:29:05.458Z,9.90
2023-02-03T04:31:32.290Z,10.60
2023-02-03T04:33:58.889Z,10.83
2023-02-03T04:36:25.409Z,10.43
2023-02-03T04:38:51.963Z,9.77
2023-02-03T04:41:18.523Z,9.03
2023-02-03T04:43:45.335Z,9.10
2023-02-03T04:46:11.965Z,9.67
2023-02-03T04:48:39.525Z,10.03
2023-02-03T04:51:08.201Z,8.53
2023-02-03T04:53:34.951Z,9.03
2023-02-03T04:56:04.216Z,10.10
2023-02-03T04:58:30.818Z,10.43
2023-02-03T05:00:57.689Z,8.97
2023-02-03T05:03:26.266Z,8.60
2023-02-03T05:05:53.199Z,8.33
2023-02-03T05:08:20.252Z,9.00
2023-02-03T05:10:46.768Z,9.43
2023-02-03T05:13:13.685Z,10.00
2023-02-03T05:15:43.408Z,10.10
2023-02-03T05:18:10.126Z,8.40
2023-02-03T05:20:36.899Z,8.60
2023-02-03T05:23:03.514Z,9.37
2023-02-03T05:25:30.332Z,8.53
2023-02-03T05:27:57.161Z,9.13
2023-02-03T05:30:24.070Z,9.77
2023-02-03T05:32:50.613Z,8.80
2023-02-03T05:35:17.326Z,8.77
2023-02-03T05:37:45.655Z,9.00
2023-02-03T05:40:31.883Z,8.90
2023-02-03T05:42:58.452Z,8.40
2023-02-03T05:45:25.135Z,8.43
2023-02-03T05:47:51.968Z,9.10
2023-02-03T05:50:18.559Z,8.00
2023-02-03T05:52:45.038Z,7.80
2023-02-03T05:55:11.556Z,7.63
2023-02-03T05:57:38.060Z,8.20
2023-02-03T06:00:07.445Z,7.67
2023-02-03T06:02:34.179Z,7.33
2023-02-03T06:05:01.575Z,7.73
2023-02-03T06:07:28.141Z,6.70
2023-02-03T06:09:54.670Z,8.30
2023-02-03T06:12:22.148Z,7.10
2023-02-03T06:14:48.880Z,7.47
2023-02-03T06:17:15.515Z,7.13
2023-02-03T06:19:42.073Z,8.03
2023-02-03T06:22:08.990Z,7.50
2023-02-03T06:24:35.578Z,7.67
2023-02-03T06:27:02.101Z,8.50
2023-02-03T06:29:28.644Z,7.63
2023-02-03T06:31:55.308Z,8.00
2023-02-03T06:34:21.926Z,7.97
2023-02-03T06:36:49.167Z,8.67
2023-02-03T06:39:16.131Z,8.03
2023-02-03T06:41:42.699Z,7.60
2023-02-03T06:44:09.161Z,8.73
2023-02-03T06:46:35.791Z,7.07
2023-02-03T06:49:02.310Z,7.27
2023-02-03T06:51:29.243Z,8.30
2023-02-03T06:53:55.988Z,8.90
2023-02-03T06:56:22.497Z,7.83
2023-02-03T06:58:49.034Z,7.80
2023-02-03T07:01:15.619Z,8.20
2023-02-03T07:03:42.396Z,8.10
2023-02-03T07:06:08.880Z,9.33
2023-02-03T07:08:35.328Z,8.40
2023-02-03T07:11:01.863Z,9.13
2023-02-03T07:13:28.675Z,9.57
2023-02-03T07:15:55.656Z,10.07
2023-02-03T07:21:14.051Z,12.57
2023-02-03T07:23:40.864Z,11.13
2023-02-03T07:26:08.366Z,11.37
2023-02-03T07:28:35.502Z,12.10
2023-02-03T07:31:04.757Z,11.93
2023-02-03T07:33:32.067Z,12.77
2023-02-03T07:35:59.684Z,12.20
2023-02-03T07:38:27.491Z,13.27
2023-02-03T07:40:54.436Z,12.20
2023-02-03T07:43:20.971Z,11.30
2023-02-03T07:45:47.995Z,11.43
2023-02-03T07:48:14.845Z,12.23
2023-02-03T07:50:41.514Z,11.67
2023-02-03T07:53:10.977Z,12.30
2023-02-03T07:55:40.537Z,12.27
2023-02-03T07:58:07.505Z,11.33
2023-02-03T08:00:34.693Z,11.90
2023-02-03T08:03:01.178Z,11.60
2023-02-03T08:05:27.987Z,11.80
2023-02-03T08:07:54.500Z,11.77
2023-02-03T08:10:21.167Z,12.63
2023-02-03T08:12:48.065Z,12.30
2023-02-03T08:15:14.643Z,11.30
2023-02-03T08:17:42.086Z,13.33
2023-02-03T08:20:09.587Z,11.70
2023-02-03T08:22:36.096Z,12.70
2023-02-03T08:25:02.743Z,10.83
2023-02-03T08:27:29.640Z,11.63
2023-02-03T08:29:56.129Z,11.80
2023-02-03T08:32:22.830Z,12.17
2023-02-03T08:34:50.400Z,11.10
2023-02-03T08:37:19.048Z,11.13
2023-02-03T08:39:45.501Z,11.33
2023-02-03T08:42:12.007Z,10.00
2023-02-03T08:44:41.385Z,11.40
2023-02-03T08:47:08.119Z,10.87
2023-02-03T08:49:35.908Z,10.73
2023-02-03T08:52:02.490Z,11.20
2023-02-03T08:54:28.938Z,10.70
2023-02-03T08:56:55.423Z,11.27
2023-02-03T08:59:21.963Z,10.43
2023-02-03T09:01:48.657Z,10.57
2023-02-03T09:04:19.693Z,9.67
2023-02-03T09:06:47.874Z,9.60
2023-02-03T09:09:15.101Z,9.33
2023-02-03T09:11:42.458Z,8.63
2023-02-03T09:14:09.703Z,8.40
2023-02-03T09:16:36.581Z,8.60
2023-02-03T09:19:03.119Z,8.70
2023-02-03T09:21:37.100Z,8.40
2023-02-03T09:24:08.827Z,8.70
2023-02-03T09:26:35.354Z,8.70
2023-02-03T09:29:02.266Z,8.27
2023-02-03T09:31:28.804Z,7.13
2023-02-03T09:33:55.428Z,8.13
2023-02-03T09:36:21.982Z,7.70
2023-02-03T09:38:49.269Z,7.70
2023-02-03T09:41:34.960Z,7.80
2023-02-03T09:44:06.585Z,9.00
2023-02-03T09:46:36.638Z,7.37
2023-02-03T09:49:08.876Z,7.20
2023-02-03T09:51:50.928Z,7.70
2023-02-03T09:54:26.609Z,8.43
2023-02-03T09:56:55.686Z,8.00
2023-02-03T09:59:23.066Z,8.60
2023-02-03T10:02:02.201Z,6.77
2023-02-03T10:04:34.803Z,7.53
2023-02-03T10:07:25.580Z,7.00
2023-02-03T10:10:03.061Z,6.93
2023-02-03T10:12:54.459Z,7.30
2023-02-03T10:15:38.448Z,7.73
2023-02-03T10:18:07.802Z,7.10
2023-02-03T10:20:39.907Z,7.30
2023-02-03T10:23:20.506Z,8.50
2023-02-03T10:25:57.400Z,7.53
2023-02-03T10:28:28.061Z,7.30
2023-02-03T10:30:57.325Z,7.40
2023-02-03T10:33:29.151Z,8.50
2023-02-03T10:35:59.533Z,7.03
2023-02-03T10:38:41.516Z,8.10
2023-02-03T10:41:08.250Z,6.90
2023-02-03T10:43:51.705Z,8.07
2023-02-03T10:46:29.223Z,7.60
2023-02-03T10:48:56.321Z,7.53
2023-02-03T10:51:28.773Z,7.97
2023-02-03T10:53:55.389Z,7.00
2023-02-03T10:56:35.132Z,7.47
2023-02-03T10:59:01.907Z,8.07
2023-02-03T11:01:38.806Z,7.87
2023-02-03T11:04:06.841Z,7.57
2023-02-03T11:06:35.290Z,7.57
2023-02-03T11:09:02.163Z,7.80
2023-02-03T11:11:32.407Z,8.80
2023-02-03T11:14:05.066Z,7.70
2023-02-03T11:16:33.655Z,7.87
2023-02-03T11:19:19.535Z,8.50
2023-02-03T11:21:54.314Z,8.20
2023-02-03T11:24:28.965Z,7.47
2023-02-03T11:27:03.131Z,7.33
2023-02-03T11:29:32.288Z,6.63
2023-02-03T11:32:01.837Z,7.33
2023-02-03T11:34:30.575Z,5.83
2023-02-03T11:36:57.389Z,6.73
2023-02-03T11:39:29.980Z,6.43
2023-02-03T11:41:56.957Z,7.10
2023-02-03T11:44:26.317Z,6.03
2023-02-03T11:46:59.133Z,5.93
2023-02-03T11:50:03.799Z,5.53
2023-02-03T11:52:38.104Z,6.10
2023-02-03T11:55:17.577Z,5.63
2023-02-03T11:58:10.251Z,5.50
2023-02-03T12:00:58.395Z,6.37
2023-02-03T12:03:37.198Z,6.60
2023-02-03T12:06:14.652Z,6.43
2023-02-03T12:08:54.923Z,6.83
2023-02-03T12:11:35.983Z,8.20
2023-02-03T12:14:25.050Z,7.30
2023-02-03T12:17:33.777Z,6.83
2023-02-03T12:20:06.828Z,7.90
2023-02-03T12:22:45.031Z,6.33
2023-02-03T12:25:26.669Z,8.50
2023-02-03T12:28:10.069Z,7.30
2023-02-03T12:30:46.832Z,5.40
2023-02-03T12:33:21.050Z,6.07
2023-02-03T12:36:13.233Z,6.13
2023-02-03T12:39:21.597Z,5.43
2023-02-03T12:42:01.941Z,5.93
2023-02-03T12:44:42.588Z,5.60
2023-02-03T12:47:16.947Z,6.97
2023-02-03T12:50:07.635Z,6.80
2023-02-03T12:52:57.263Z,6.90
2023-02-03T12:55:46.638Z,6.30
2023-02-03T12:58:40.363Z,7.17
2023-02-03T13:01:23.496Z,6.70
2023-02-03T13:04:14.317Z,7.40
2023-02-03T13:07:04.813Z,6.43
2023-02-03T13:09:51.444Z,6.50
2023-02-03T13:12:32.562Z,6.57
2023-02-03T13:15:26.787Z,5.00
2023-02-03T13:17:55.774Z,5.47
2023-02-03T13:20:25.412Z,5.20
2023-02-03T13:22:53.349Z,3.90
2023-02-03T13:25:40.964Z,4.50
2023-02-03T13:28:29.345Z,4.73
2023-02-03T13:31:11.119Z,4.57
2023-02-03T13:33:59.406Z,5.53
2023-02-03T13:36:38.004Z,5.83
2023-02-03T13:39:42.993Z,5.70
2023-02-03T13:42:33.000Z,5.33
2023-02-03T13:45:12.431Z,4.87
2023-02-03T13:47:39.528Z,4.90
2023-02-03T13:50:09.939Z,5.17
2023-02-03T13:52:47.812Z,4.50
2023-02-03T13:55:27.185Z,4.50
2023-02-03T13:57:54.085Z,4.50
2023-02-03T14:00:45.601Z,4.00
2023-02-03T14:03:24.172Z,5.20
2023-02-03T14:05:55.293Z,3.77
2023-02-03T14:08:28.062Z,4.20
2023-02-03T14:11:32.626Z,6.50
2023-02-03T14:14:08.374Z,6.57
2023-02-03T14:16:48.076Z,5.40
2023-02-03T14:19:29.918Z,5.50
2023-02-03T14:22:04.845Z,4.97
2023-02-03T14:24:33.489Z,5.30
2023-02-03T14:27:02.516Z,4.77
2023-02-03T14:29:36.488Z,4.77
2023-02-03T14:32:05.204Z,5.70
2023-02-03T14:34:45.224Z,5.17
2023-02-03T14:37:29.941Z,5.10
2023-02-03T14:40:11.290Z,4.50
2023-02-03T14:42:53.746Z,5.50
2023-02-03T14:45:39.280Z,4.80
2023-02-03T14:48:26.999Z,6.43
2023-02-03T14:51:17.845Z,6.47
2023-02-03T14:54:27.179Z,5.93
2023-02-03T14:57:19.619Z,5.30
2023-02-03T14:59:49.578Z,6.33
2023-02-03T15:02:23.318Z,6.23
2023-02-03T15:04:51.879Z,6.60
2023-02-03T15:07:41.754Z,6.97
2023-02-03T15:10:20.445Z,8.93
2023-02-03T15:12:48.404Z,8.63
2023-02-03T15:15:33.088Z,6.93
2023-02-03T15:18:12.739Z,6.87
2023-02-03T15:20:43.557Z,5.63
2023-02-03T15:23:24.348Z,6.60
2023-02-03T15:26:02.200Z,6.37
2023-02-03T15:28:30.195Z,6.23
2023-02-03T15:31:11.760Z,6.40
2023-02-03T15:33:38.645Z,7.07
2023-02-03T15:36:27.392Z,7.40
2023-02-03T15:38:59.285Z,6.10
2023-02-03T15:41:26.531Z,5.30
2023-02-03T15:43:57.962Z,5.10
2023-02-03T15:46:38.745Z,5.97
2023-02-03T15:49:11.984Z,5.20
2023-02-03T15:51:48.743Z,6.37
2023-02-03T15:54:30.495Z,5.50
2023-02-03T15:57:00.421Z,5.70
2023-02-03T15:59:32.616Z,7.10
2023-02-03T16:02:01.640Z,5.57
2023-02-03T16:04:28.253Z,6.97
2023-02-03T16:06:55.892Z,4.53
2023-02-03T16:09:34.960Z,4.80
2023-02-03T16:12:31.391Z,5.73
2023-02-03T16:15:03.184Z,6.17
2023-02-03T16:17:35.646Z,4.93
2023-02-03T16:20:23.600Z,6.20
2023-02-03T16:23:21.008Z,5.80
2023-02-03T16:26:13.742Z,6.13
2023-02-03T16:28:59.128Z,5.17
2023-02-03T16:31:44.045Z,6.13
2023-02-03T16:34:32.860Z,6.03
2023-02-03T16:37:18.031Z,4.80
2023-02-03T16:40:03.272Z,5.40
2023-02-03T16:42:56.660Z,4.77
2023-02-03T16:45:41.780Z,4.80
2023-02-03T16:48:30.660Z,5.20
2023-02-03T16:51:12.178Z,6.40
2023-02-03T16:53:38.945Z,4.50
2023-02-03T16:56:05.979Z,5.40
2023-02-03T16:58:32.619Z,5.33
2023-02-03T17:01:01.343Z,4.40
2023-02-03T17:03:28.705Z,5.70
2023-02-03T17:05:56.058Z,5.17
2023-02-03T17:08:24.902Z,5.60
2023-02-03T17:10:51.760Z,6.00
2023-02-03T17:13:20.231Z,5.60
2023-02-03T17:15:49.818Z,5.30
2023-02-03T17:18:16.668Z,5.63
2023-02-03T17:20:44.162Z,5.07
2023-02-03T17:23:11.234Z,4.90
2023-02-03T17:25:38.829Z,5.50
2023-02-03T17:28:06.413Z,5.50
2023-02-03T17:30:35.090Z,5.50
2023-02-03T17:33:02.922Z,5.70
2023-02-03T17:35:29.796Z,5.17
2023-02-03T17:37:56.637Z,4.70
2023-02-03T17:54:06.585Z,5.30
2023-02-03T17:56:35.492Z,4.87
2023-02-03T17:59:03.813Z,6.33
2023-02-03T18:01:30.759Z,6.00
2023-02-03T18:03:59.315Z,5.33
2023-02-03T18:06:28.001Z,4.70
2023-02-03T18:09:00.993Z,5.10
2023-02-03T18:11:28.992Z,4.80
2023-02-03T18:13:55.941Z,5.10
2023-02-03T18:16:29.252Z,5.00
2023-02-03T18:18:56.611Z,4.57
2023-02-03T18:21:24.581Z,6.80
2023-02-03T18:23:51.871Z,4.70
2023-02-03T18:26:19.804Z,5.50
2023-02-03T18:28:46.965Z,5.67
2023-02-03T18:31:15.704Z,4.90
2023-02-03T18:33:43.907Z,5.63
2023-02-03T18:36:12.738Z,4.87
2023-02-03T18:38:40.870Z,4.37
2023-02-03T18:41:17.801Z,5.03
2023-02-03T18:43:44.960Z,4.57
2023-02-03T18:46:14.336Z,4.50
2023-02-03T18:48:40.906Z,4.03
2023-02-03T18:51:12.979Z,5.00
2023-02-03T18:53:44.991Z,5.47
2023-02-03T18:56:16.768Z,4.13
2023-02-03T18:58:46.643Z,5.13
2023-02-03T19:01:27.236Z,5.90
2023-02-03T19:03:58.324Z,5.33
2023-02-03T19:06:29.130Z,6.17
2023-02-03T19:08:56.225Z,5.33
2023-02-03T19:11:26.204Z,6.03
2023-02-03T19:13:53.025Z,5.00
2023-02-03T19:16:19.812Z,5.60
2023-02-03T19:18:46.954Z,5.53
2023-02-03T19:21:14.339Z,4.50
2023-02-03T19:23:41.673Z,5.13
2023-02-03T19:26:09.874Z,5.13
2023-02-03T19:28:37.159Z,5.13
2023-02-03T19:31:09.016Z,6.90
2023-02-03T19:33:36.964Z,5.53
2023-02-03T19:36:07.606Z,6.57
2023-02-03T19:38:35.257Z,5.77
2023-02-03T19:41:02.541Z,6.27
2023-02-03T19:43:32.416Z,5.23
2023-02-03T19:45:59.951Z,7.00
2023-02-03T19:48:26.976Z,6.33
2023-02-03T19:50:54.347Z,6.40
2023-02-03T19:53:21.709Z,6.23
2023-02-03T19:55:49.042Z,6.37
2023-02-03T19:58:16.532Z,5.20
2023-02-03T20:00:43.439Z,7.17
2023-02-03T20:03:10.754Z,6.20
2023-02-03T20:05:38.255Z,5.00
2023-02-03T20:08:06.455Z,4.40
2023-02-03T20:10:33.652Z,5.60
2023-02-03T20:13:00.905Z,6.67
2023-02-03T20:15:27.891Z,5.50
2023-02-03T20:17:54.863Z,6.60
2023-02-03T20:20:23.965Z,5.50
2023-02-03T20:22:50.513Z,5.73
2023-02-03T20:25:17.425Z,5.77
2023-02-03T20:27:44.179Z,6.20
2023-02-03T20:30:12.001Z,6.47
2023-02-03T20:32:39.063Z,6.27
2023-02-03T20:35:06.483Z,7.90
2023-02-03T20:37:36.096Z,6.90
2023-02-03T20:40:06.947Z,6.60
2023-02-03T20:42:34.103Z,6.87
2023-02-03T20:45:01.116Z,5.97
2023-02-03T20:47:28.133Z,6.27
2023-02-03T20:49:56.082Z,6.33
2023-02-03T20:52:23.175Z,5.40
2023-02-03T20:54:50.025Z,5.23
2023-02-03T20:57:18.790Z,5.90
2023-02-03T20:59:46.472Z,6.07
2023-02-03T21:02:30.777Z,6.27
2023-02-03T21:04:58.127Z,5.00
2023-02-03T21:07:30.794Z,6.97
2023-02-03T21:10:01.706Z,5.60
2023-02-03T21:12:28.856Z,7.00
2023-02-03T21:14:56.393Z,5.50
2023-02-03T21:17:27.279Z,5.63
2023-02-03T21:19:55.435Z,6.33
2023-02-03T21:22:27.398Z,5.60
2023-02-03T21:24:57.912Z,6.10
2023-02-03T21:27:30.354Z,5.93
2023-02-03T21:29:58.686Z,6.60
2023-02-03T21:32:29.766Z,6.87
2023-02-03T21:34:56.413Z,5.70
2023-02-03T21:37:23.911Z,5.83
2023-02-03T21:39:50.886Z,6.10
2023-02-03T21:42:42.583Z,5.93
2023-02-03T21:45:19.804Z,5.87
2023-02-03T21:47:48.563Z,4.63
2023-02-03T21:50:36.379Z,5.50
2023-02-03T21:53:09.148Z,6.67
2023-02-03T21:55:41.571Z,6.23
2023-02-03T21:58:30.391Z,6.00
2023-02-03T22:00:59.616Z,6.00
2023-02-03T22:03:38.012Z,5.87
2023-02-03T22:06:16.768Z,4.70
2023-02-03T22:08:51.703Z,6.07
2023-02-03T22:11:20.185Z,5.40
2023-02-03T22:13:48.013Z,5.70
2023-02-03T22:16:17.138Z,5.63
2023-02-03T22:18:47.950Z,5.20
2023-02-03T22:21:15.538Z,7.10
2023-02-03T22:23:42.632Z,5.30
2023-02-03T22:26:10.798Z,5.80
2023-02-03T22:28:37.836Z,6.37
2023-02-03T22:31:05.219Z,6.87
2023-02-03T22:33:32.145Z,6.23
2023-02-03T22:35:58.612Z,4.97
2023-02-03T22:38:25.693Z,5.87
2023-02-03T22:40:53.016Z,6.77
2023-02-03T22:43:19.920Z,4.90
2023-02-03T22:45:46.511Z,6.43
2023-02-03T22:48:13.080Z,8.03
2023-02-03T22:50:39.781Z,6.40
2023-02-03T22:53:07.036Z,5.50
2023-02-03T22:55:33.738Z,4.30
2023-02-03T22:58:00.262Z,6.00
2023-02-03T23:00:27.200Z,5.70
2023-02-03T23:02:53.917Z,6.30
2023-02-03T23:05:20.480Z,8.37
2023-02-03T23:07:47.841Z,5.23
2023-02-03T23:10:18.858Z,6.53
2023-02-03T23:12:45.722Z,6.80
2023-02-03T23:15:13.211Z,7.10
2023-02-03T23:17:40.037Z,5.10
2023-02-03T23:20:08.210Z,5.70
2023-02-03T23:22:34.859Z,7.57
2023-02-03T23:25:02.478Z,6.50
2023-02-03T23:27:29.133Z,7.37
2023-02-03T23:29:55.750Z,6.90
2023-02-03T23:32:22.385Z,6.63
2023-02-03T23:35:07.429Z,8.40
2023-02-03T23:37:34.280Z,6.13
2023-02-03T23:40:00.888Z,7.10
2023-02-03T23:42:27.412Z,6.10
2023-02-03T23:44:53.958Z,5.97
2023-02-03T23:47:20.456Z,5.67
2023-02-03T23:49:47.230Z,6.63
2023-02-03T23:52:13.718Z,5.83
2023-02-03T23:54:40.395Z,6.80
2023-02-03T23:57:06.919Z,6.70
2023-02-03T23:59:33.491Z,6.40
